Time;durP1;ratioP1;P1;durP2;ratioP2;P2;SDS_P1;SDS_P2;PMS_P1;PMS_P2;Temp;Humidity;BMP_temperature;BMP_pressure;BME280_temperature;BME280_humidity;BME280_pressure;Samples;Min_cycle;Max_cycle;Signal;HPM_P1;HPM_P2
2023/08/11 00:00:08;;;;;;;4.70;4.30;;;26.20;64.30;;;;;;4851482;29;20471;-85
2023/08/11 00:02:39;;;;;;;3.50;3.20;;;26.20;64.20;;;;;;4850083;29;20872;-85
2023/08/11 00:05:08;;;;;;;4.00;3.70;;;26.20;64.20;;;;;;4852529;29;20838;-85
2023/08/11 00:07:36;;;;;;;3.70;3.40;;;26.20;64.20;;;;;;4852265;29;20487;-84
2023/08/11 00:10:05;;;;;;;3.70;3.40;;;26.20;64.20;;;;;;4844794;29;20473;-85
2023/08/11 00:12:35;;;;;;;3.47;3.17;;;26.20;64.20;;;;;;4855897;29;20528;-85
2023/08/11 00:15:03;;;;;;;3.90;3.60;;;26.10;64.30;;;;;;4852298;29;20841;-85
2023/08/11 00:17:33;;;;;;;3.87;3.57;;;26.10;64.30;;;;;;4855118;29;20468;-85
2023/08/11 00:20:03;;;;;;;3.47;3.27;;;26.10;64.30;;;;;;4849710;29;20486;-85
2023/08/11 00:22:31;;;;;;;3.90;3.60;;;26.10;64.30;;;;;;4854389;29;20472;-85
2023/08/11 00:24:59;;;;;;;4.27;3.97;;;26.10;64.30;;;;;;4852467;29;20970;-84
2023/08/11 00:27:28;;;;;;;3.83;3.23;;;26.10;64.30;;;;;;4849798;29;20583;-86
2023/08/11 00:29:58;;;;;;;3.70;3.40;;;26.10;64.30;;;;;;4860714;29;20499;-84
2023/08/11 00:32:26;;;;;;;3.53;3.23;;;26.10;64.30;;;;;;4846914;29;20479;-87
2023/08/11 00:34:56;;;;;;;3.23;3.03;;;26.10;64.30;;;;;;4851985;29;20492;-85
2023/08/11 00:37:24;;;;;;;4.23;3.93;;;26.10;64.30;;;;;;4846490;29;20476;-87
2023/08/11 00:39:53;;;;;;;3.43;3.23;;;26.10;64.30;;;;;;4851961;29;20543;-84
2023/08/11 00:42:21;;;;;;;3.27;3.03;;;26.10;64.30;;;;;;4849988;29;20482;-85
2023/08/11 00:44:49;;;;;;;5.30;4.90;;;26.10;64.30;;;;;;4854887;29;20480;-85
2023/08/11 00:47:18;;;;;;;4.03;3.50;;;26.10;64.30;;;;;;4847299;29;21052;-85
2023/08/11 00:49:46;;;;;;;3.50;3.20;;;26.10;64.30;;;;;;4853195;29;20476;-86
2023/08/11 00:52:15;;;;;;;5.00;3.53;;;26.10;64.30;;;;;;4848326;29;20555;-86
2023/08/11 00:54:47;;;;;;;3.97;3.67;;;26.10;64.30;;;;;;4853667;29;20490;-85
2023/08/11 00:57:15;;;;;;;3.60;3.30;;;26.10;64.20;;;;;;4851408;29;20479;-86
2023/08/11 00:59:44;;;;;;;3.90;3.60;;;26.10;64.30;;;;;;4847276;29;21017;-85
2023/08/11 01:02:12;;;;;;;4.13;3.83;;;26.10;64.30;;;;;;4852034;29;20948;-85
2023/08/11 01:04:41;;;;;;;4.00;3.70;;;26.00;64.30;;;;;;4853597;29;20487;-86
2023/08/11 01:07:22;;;;;;;4.00;3.60;;;26.00;64.20;;;;;;4850946;29;20481;-84
2023/08/11 01:10:01;;;;;;;3.93;3.63;;;26.00;64.20;;;;;;4853537;29;20480;-86
2023/08/11 01:12:39;;;;;;;4.40;3.10;;;26.00;64.30;;;;;;4864606;29;20472;-87
2023/08/11 01:15:19;;;;;;;3.20;3.00;;;26.00;64.20;;;;;;4851672;29;20472;-85
2023/08/11 01:17:50;;;;;;;3.83;3.57;;;26.00;64.20;;;;;;4854552;29;20471;-84
2023/08/11 01:20:19;;;;;;;3.50;3.23;;;26.00;64.20;;;;;;4853547;29;20471;-88
2023/08/11 01:22:54;;;;;;;3.67;3.37;;;26.00;64.20;;;;;;4850645;29;20563;-85
2023/08/11 01:25:25;;;;;;;4.20;3.50;;;26.00;64.20;;;;;;4851079;29;20470;-84
2023/08/11 01:27:55;;;;;;;3.70;3.40;;;26.00;64.20;;;;;;4849652;29;20995;-85
2023/08/11 01:30:24;;;;;;;3.27;3.03;;;26.00;64.20;;;;;;4858810;29;20469;-85
2023/08/11 01:32:52;;;;;;;2.97;2.77;;;26.00;64.20;;;;;;4856016;29;20535;-85
2023/08/11 01:35:20;;;;;;;3.50;3.20;;;26.00;64.20;;;;;;4857187;29;20475;-85
2023/08/11 01:38:08;;;;;;;5.20;3.10;;;26.00;64.20;;;;;;4853074;29;20475;-84
2023/08/11 01:40:38;;;;;;;3.53;3.10;;;26.00;64.20;;;;;;4851728;29;20471;-84
2023/08/11 01:43:10;;;;;;;3.70;3.40;;;26.00;64.20;;;;;;4855889;29;20566;-85
2023/08/11 01:45:38;;;;;;;3.73;3.43;;;26.00;64.20;;;;;;4857121;29;20548;-85
2023/08/11 01:48:11;;;;;;;3.50;3.20;;;26.00;64.20;;;;;;4855771;29;20468;-85
2023/08/11 01:50:39;;;;;;;2.93;2.73;;;25.90;64.20;;;;;;4857159;29;20475;-84
2023/08/11 01:53:07;;;;;;;3.80;3.50;;;26.00;64.20;;;;;;4861005;29;20490;-84
2023/08/11 01:55:37;;;;;;;3.80;3.40;;;25.90;64.20;;;;;;4858461;29;20514;-85
2023/08/11 01:58:06;;;;;;;3.43;3.13;;;25.90;64.20;;;;;;4857367;29;20475;-85
2023/08/11 02:00:34;;;;;;;3.07;2.87;;;25.90;64.20;;;;;;4858147;29;20561;-85
2023/08/11 02:03:03;;;;;;;4.03;3.73;;;25.90;64.20;;;;;;4855411;29;20838;-85
2023/08/11 02:05:32;;;;;;;3.27;3.07;;;25.90;64.10;;;;;;4873734;29;20570;-85
2023/08/11 02:08:01;;;;;;;3.10;2.90;;;25.90;64.10;;;;;;4857779;29;20715;-85
2023/08/11 02:10:30;;;;;;;3.53;3.33;;;25.90;64.10;;;;;;4853198;29;20968;-85
2023/08/11 02:13:00;;;;;;;3.43;3.13;;;25.90;64.10;;;;;;4858853;29;20517;-85
2023/08/11 02:15:29;;;;;;;3.30;3.10;;;25.90;64.10;;;;;;4857539;29;20991;-85
2023/08/11 02:17:57;;;;;;;2.73;2.57;;;25.90;64.10;;;;;;4867759;29;20524;-85
2023/08/11 02:20:26;;;;;;;3.47;3.27;;;25.90;64.10;;;;;;4851165;29;20819;-88
2023/08/11 02:22:54;;;;;;;4.30;3.00;;;25.90;64.10;;;;;;4850993;29;20566;-85
2023/08/11 02:25:25;;;;;;;4.00;3.70;;;25.90;64.10;;;;;;4858361;29;20480;-84
2023/08/11 02:27:54;;;;;;;3.60;3.30;;;25.90;64.10;;;;;;4850671;29;20609;-84
2023/08/11 02:30:24;;;;;;;3.10;2.90;;;25.90;64.10;;;;;;4858723;29;20979;-85
2023/08/11 02:32:52;;;;;;;4.40;2.97;;;25.80;64.10;;;;;;4856275;29;20477;-84
2023/08/11 02:35:21;;;;;;;2.90;2.70;;;25.80;64.10;;;;;;4858441;29;20580;-85
2023/08/11 02:37:50;;;;;;;4.10;3.60;;;25.80;64.10;;;;;;4853115;29;20478;-86
2023/08/11 02:40:19;;;;;;;3.00;2.80;;;25.80;64.10;;;;;;4856377;29;20770;-85
2023/08/11 02:42:54;;;;;;;3.40;3.13;;;25.80;64.10;;;;;;4857954;29;20880;-84
2023/08/11 02:45:25;;;;;;;3.30;3.10;;;25.80;64.10;;;;;;4872231;29;20466;-85
2023/08/11 02:47:56;;;;;;;3.60;3.30;;;25.80;64.10;;;;;;4856099;29;20471;-85
2023/08/11 02:50:24;;;;;;;3.07;2.87;;;25.80;64.10;;;;;;4853067;29;20479;-86
2023/08/11 02:52:52;;;;;;;3.50;3.20;;;25.80;64.10;;;;;;4853739;29;20506;-85
2023/08/11 02:55:21;;;;;;;2.90;2.70;;;25.80;64.10;;;;;;4857152;29;20496;-86
2023/08/11 02:57:49;;;;;;;3.80;3.53;;;25.80;64.10;;;;;;4866597;29;20988;-85
2023/08/11 03:00:17;;;;;;;3.63;3.33;;;25.70;64.10;;;;;;4855512;29;20578;-84
2023/08/11 03:02:47;;;;;;;3.80;3.20;;;25.70;64.10;;;;;;4856884;29;20474;-86
2023/08/11 03:05:17;;;;;;;3.33;3.03;;;25.70;64.20;;;;;;4854233;29;20466;-85
2023/08/11 03:07:48;;;;;;;3.57;3.27;;;25.70;64.10;;;;;;4857454;29;20678;-84
2023/08/11 03:10:19;;;;;;;4.07;3.77;;;25.70;64.10;;;;;;4854713;29;20488;-84
2023/08/11 03:12:47;;;;;;;5.10;3.30;;;25.70;64.10;;;;;;4854260;29;20478;-88
2023/08/11 03:15:16;;;;;;;3.40;3.20;;;25.70;64.10;;;;;;4857757;29;20495;-84
2023/08/11 03:17:44;;;;;;;3.53;3.23;;;25.70;64.10;;;;;;4857013;29;20880;-84
2023/08/11 03:20:15;;;;;;;4.13;3.70;;;25.70;64.10;;;;;;4857010;29;21058;-86
2023/08/11 03:22:46;;;;;;;3.20;3.00;;;25.70;64.10;;;;;;4856589;29;20478;-84
2023/08/11 03:25:18;;;;;;;4.17;3.87;;;25.70;64.10;;;;;;4855067;29;20565;-84
2023/08/11 03:27:46;;;;;;;3.60;3.30;;;25.70;64.20;;;;;;4854251;29;20588;-84
2023/08/11 03:30:24;;;;;;;3.40;3.10;;;25.70;64.20;;;;;;4852216;29;20484;-85
2023/08/11 03:32:54;;;;;;;3.80;3.40;;;25.70;64.20;;;;;;4851736;29;20481;-84
2023/08/11 03:35:35;;;;;;;3.33;3.13;;;25.70;64.20;;;;;;4850494;29;20486;-84
2023/08/11 03:38:03;;;;;;;2.93;2.73;;;25.60;64.20;;;;;;4851181;29;20854;-84
2023/08/11 03:40:33;;;;;;;3.03;2.83;;;25.70;64.20;;;;;;4848066;29;20521;-84
2023/08/11 03:43:03;;;;;;;3.30;3.00;;;25.60;64.20;;;;;;4865525;29;20475;-87
2023/08/11 03:45:33;;;;;;;3.20;2.87;;;25.60;64.20;;;;;;4865421;29;20478;-86
2023/08/11 03:48:05;;;;;;;2.90;2.70;;;25.60;64.20;;;;;;4863853;29;20885;-85
2023/08/11 03:50:35;;;;;;;2.90;2.67;;;25.60;64.20;;;;;;4861951;29;20472;-85
2023/08/11 03:53:03;;;;;;;3.90;2.77;;;25.60;64.20;;;;;;4849417;29;20471;-85
2023/08/11 03:55:32;;;;;;;3.53;3.23;;;25.60;64.20;;;;;;4853308;29;20486;-84
2023/08/11 03:58:01;;;;;;;2.70;2.50;;;25.60;64.20;;;;;;4847422;29;20552;-85
2023/08/11 04:00:31;;;;;;;3.10;2.90;;;25.60;64.20;;;;;;4851142;29;20487;-85
2023/08/11 04:03:09;;;;;;;2.90;2.70;;;25.60;64.20;;;;;;4861976;29;20478;-84
2023/08/11 04:05:39;;;;;;;3.13;2.83;;;25.60;64.20;;;;;;4853787;29;20470;-85
2023/08/11 04:08:07;;;;;;;2.83;2.63;;;25.60;64.20;;;;;;4850897;29;20984;-84
2023/08/11 04:10:36;;;;;;;3.50;3.20;;;25.50;64.10;;;;;;4850773;29;20989;-84
2023/08/11 04:13:04;;;;;;;3.40;3.20;;;25.50;64.20;;;;;;4850656;29;20470;-84
2023/08/11 04:15:34;;;;;;;3.00;2.80;;;25.50;64.20;;;;;;4849995;29;20493;-87
2023/08/11 04:18:03;;;;;;;3.33;3.13;;;25.50;64.20;;;;;;4847834;29;20677;-85
2023/08/11 04:20:33;;;;;;;4.33;3.93;;;25.50;64.10;;;;;;4850119;29;20967;-84
2023/08/11 04:23:04;;;;;;;3.50;3.20;;;25.50;64.10;;;;;;4862928;29;20506;-85
2023/08/11 04:25:35;;;;;;;3.23;3.03;;;25.50;64.10;;;;;;4863960;29;20484;-86
2023/08/11 04:28:04;;;;;;;3.10;2.80;;;25.50;64.10;;;;;;4865281;29;20567;-84
2023/08/11 04:30:33;;;;;;;3.23;3.00;;;25.50;64.10;;;;;;4848973;29;20466;-84
2023/08/11 04:33:01;;;;;;;3.13;2.93;;;25.50;64.10;;;;;;4849672;29;20476;-85
2023/08/11 04:35:34;;;;;;;2.97;2.77;;;25.50;64.10;;;;;;4847029;29;20487;-85
2023/08/11 04:38:04;;;;;;;2.97;2.77;;;25.50;64.10;;;;;;4864249;29;20484;-87
2023/08/11 04:40:35;;;;;;;2.93;2.73;;;25.50;64.10;;;;;;4846537;29;20481;-90
2023/08/11 04:43:04;;;;;;;3.77;3.47;;;25.50;64.10;;;;;;4847311;29;20478;-85
2023/08/11 04:45:36;;;;;;;2.47;2.27;;;25.50;64.20;;;;;;4863932;29;21403;-84
2023/08/11 04:48:05;;;;;;;3.37;3.07;;;25.50;64.10;;;;;;4851984;29;21042;-84
2023/08/11 04:50:38;;;;;;;3.00;2.77;;;25.50;64.20;;;;;;4862281;29;20569;-85
2023/08/11 04:53:08;;;;;;;3.17;2.97;;;25.50;64.20;;;;;;4852927;29;20476;-87
2023/08/11 04:55:40;;;;;;;3.27;3.07;;;25.50;64.20;;;;;;4847865;29;20483;-84
2023/08/11 04:58:09;;;;;;;2.60;2.40;;;25.50;64.20;;;;;;4849965;29;20465;-84
2023/08/11 05:00:37;;;;;;;2.77;2.57;;;25.50;64.20;;;;;;4859459;29;20570;-85
2023/08/11 05:03:06;;;;;;;3.77;3.47;;;25.50;64.20;;;;;;4845868;29;20490;-84
2023/08/11 05:05:35;;;;;;;2.87;2.67;;;25.50;64.20;;;;;;4849921;29;20473;-86
2023/08/11 05:08:03;;;;;;;2.40;2.23;;;25.50;64.20;;;;;;4852954;29;20492;-87
2023/08/11 05:10:33;;;;;;;3.47;3.17;;;25.50;64.20;;;;;;4856965;29;20482;-84
2023/08/11 05:13:01;;;;;;;2.80;2.60;;;25.50;64.20;;;;;;4857374;29;20817;-84
2023/08/11 05:15:29;;;;;;;3.00;2.80;;;25.50;64.20;;;;;;4862233;29;20576;-85
2023/08/11 05:17:57;;;;;;;3.20;2.90;;;25.50;64.30;;;;;;4862144;29;20458;-84
2023/08/11 05:20:26;;;;;;;3.07;2.87;;;25.50;64.30;;;;;;4856733;29;20477;-85
2023/08/11 05:22:54;;;;;;;3.03;2.83;;;25.50;64.30;;;;;;4858660;29;20481;-85
2023/08/11 05:25:23;;;;;;;2.93;2.73;;;25.50;64.20;;;;;;4858814;29;20466;-85
2023/08/11 05:27:52;;;;;;;3.23;2.97;;;25.50;64.20;;;;;;4861094;29;20493;-84
2023/08/11 05:30:25;;;;;;;2.40;2.30;;;25.50;64.10;;;;;;4861156;29;20457;-84
2023/08/11 05:32:54;;;;;;;2.90;2.70;;;25.50;64.10;;;;;;4859558;29;20474;-85
2023/08/11 05:35:22;;;;;;;2.80;2.60;;;25.50;64.10;;;;;;4849319;29;20558;-87
2023/08/11 05:37:50;;;;;;;3.37;3.07;;;25.50;64.10;;;;;;4857172;29;20542;-88
2023/08/11 05:40:19;;;;;;;3.00;2.70;;;25.50;64.10;;;;;;4857119;29;20479;-84
2023/08/11 05:42:47;;;;;;;3.47;3.00;;;25.50;64.00;;;;;;4853899;29;20882;-84
2023/08/11 05:45:17;;;;;;;3.30;3.10;;;25.50;64.00;;;;;;4857759;29;20487;-87
2023/08/11 05:47:45;;;;;;;4.03;3.10;;;25.50;64.00;;;;;;4859263;29;20465;-84
2023/08/11 05:50:14;;;;;;;3.43;3.13;;;25.50;64.00;;;;;;4858345;29;20505;-87
2023/08/11 05:52:42;;;;;;;2.93;2.67;;;25.50;64.00;;;;;;4858465;29;20565;-84
2023/08/11 05:55:10;;;;;;;3.10;2.90;;;25.50;64.00;;;;;;4860805;29;20473;-86
2023/08/11 05:57:38;;;;;;;2.70;2.50;;;25.50;64.00;;;;;;4858807;29;20997;-84
2023/08/11 06:00:09;;;;;;;4.20;3.17;;;25.50;63.90;;;;;;4859959;29;20925;-84
2023/08/11 06:02:42;;;;;;;3.40;3.10;;;25.60;64.00;;;;;;4852562;29;20537;-85
2023/08/11 06:05:10;;;;;;;6.00;3.57;;;25.60;64.00;;;;;;4854605;29;20994;-85
2023/08/11 06:07:39;;;;;;;3.90;3.50;;;25.60;64.10;;;;;;4852076;29;20574;-84
2023/08/11 06:10:13;;;;;;;3.73;3.07;;;25.60;64.20;;;;;;4861407;29;20474;-83
2023/08/11 06:12:41;;;;;;;3.87;3.30;;;25.60;64.30;;;;;;4852359;29;20501;-84
2023/08/11 06:15:10;;;;;;;5.90;4.03;;;25.60;64.30;;;;;;4851245;29;20534;-87
2023/08/11 06:17:38;;;;;;;3.70;3.30;;;25.60;64.30;;;;;;4854533;29;20484;-85
2023/08/11 06:20:10;;;;;;;4.23;3.50;;;25.60;64.30;;;;;;4857741;29;20945;-85
2023/08/11 06:22:41;;;;;;;3.27;2.97;;;25.60;64.40;;;;;;4856595;29;20855;-85
2023/08/11 06:25:10;;;;;;;3.40;3.07;;;25.60;64.40;;;;;;4859453;29;20953;-86
2023/08/11 06:27:38;;;;;;;3.07;2.80;;;25.60;64.40;;;;;;4857171;29;20504;-85
2023/08/11 06:30:09;;;;;;;3.80;3.50;;;25.60;64.40;;;;;;4857564;29;20482;-85
2023/08/11 06:32:37;;;;;;;5.83;3.67;;;25.60;64.40;;;;;;4859462;29;20461;-85
2023/08/11 06:35:08;;;;;;;3.27;2.97;;;25.60;64.40;;;;;;4859338;29;20463;-85
2023/08/11 06:37:36;;;;;;;3.87;3.57;;;25.60;64.40;;;;;;4859365;29;20489;-85
2023/08/11 06:40:06;;;;;;;4.43;3.03;;;25.60;64.40;;;;;;4858145;29;20518;-85
2023/08/11 06:42:34;;;;;;;3.50;3.20;;;25.60;64.40;;;;;;4859894;29;20515;-86
2023/08/11 06:45:08;;;;;;;3.17;2.97;;;25.60;64.40;;;;;;4853716;29;20958;-83
2023/08/11 06:47:36;;;;;;;7.20;3.40;;;25.70;64.30;;;;;;4857171;29;20555;-86
2023/08/11 06:50:05;;;;;;;3.70;3.40;;;25.70;65.30;;;;;;4861393;29;20473;-85
2023/08/11 06:52:35;;;;;;;4.27;3.87;;;25.70;65.50;;;;;;4861044;29;21038;-84
2023/08/11 06:55:05;;;;;;;6.87;4.90;;;25.70;65.60;;;;;;4864168;29;20465;-84
2023/08/11 06:57:33;;;;;;;3.83;3.53;;;25.70;65.80;;;;;;4859487;29;20495;-85
2023/08/11 07:00:02;;;;;;;3.90;3.30;;;25.70;65.90;;;;;;4863163;29;20466;-86
2023/08/11 07:02:31;;;;;;;8.00;4.00;;;25.70;65.90;;;;;;4860637;29;21140;-84
2023/08/11 07:04:59;;;;;;;7.93;3.97;;;25.70;66.00;;;;;;4864512;29;20451;-85
2023/08/11 07:07:27;;;;;;;4.13;3.77;;;25.70;66.00;;;;;;4857614;29;20470;-88
2023/08/11 07:09:57;;;;;;;7.87;4.00;;;25.70;66.00;;;;;;4860895;29;20471;-83
2023/08/11 07:12:29;;;;;;;4.17;3.77;;;25.80;66.00;;;;;;4878857;29;20467;-87
2023/08/11 07:14:57;;;;;;;4.10;3.70;;;25.80;66.00;;;;;;4859733;29;20471;-84
2023/08/11 07:17:25;;;;;;;4.60;3.57;;;25.80;66.00;;;;;;4858763;29;20486;-84
2023/08/11 07:19:54;;;;;;;4.73;3.60;;;25.80;65.90;;;;;;4855912;29;20842;-87
2023/08/11 07:22:22;;;;;;;4.33;3.63;;;25.80;65.90;;;;;;4856287;29;21135;-84
2023/08/11 07:24:50;;;;;;;4.20;3.57;;;25.80;65.80;;;;;;4859089;29;20971;-86
2023/08/11 07:27:19;;;;;;;5.50;3.77;;;25.80;65.70;;;;;;4857633;29;20497;-85
2023/08/11 07:29:48;;;;;;;5.00;3.90;;;25.90;65.70;;;;;;4858100;29;20498;-87
2023/08/11 07:32:16;;;;;;;5.57;3.50;;;25.90;65.70;;;;;;4858913;29;20990;-87
2023/08/11 07:34:44;;;;;;;5.50;3.50;;;25.90;65.80;;;;;;4859145;29;20469;-87
2023/08/11 07:37:12;;;;;;;3.63;3.33;;;25.90;65.80;;;;;;4859006;29;20490;-84
2023/08/11 07:39:41;;;;;;;5.47;3.30;;;25.90;65.90;;;;;;4856050;29;20864;-84
2023/08/11 07:42:09;;;;;;;3.70;3.40;;;25.90;65.90;;;;;;4857569;29;20878;-85
2023/08/11 07:44:38;;;;;;;6.83;3.30;;;25.90;65.90;;;;;;4855593;29;20518;-88
2023/08/11 07:47:06;;;;;;;3.60;3.33;;;26.00;65.90;;;;;;4858151;29;20980;-85
2023/08/11 07:49:35;;;;;;;3.20;3.00;;;26.00;65.70;;;;;;4858183;29;20471;-89
2023/08/11 07:52:04;;;;;;;3.53;3.30;;;26.00;65.70;;;;;;4860375;29;20878;-85
2023/08/11 07:54:32;;;;;;;3.00;2.80;;;26.00;65.70;;;;;;4858598;29;20503;-86
2023/08/11 07:57:01;;;;;;;4.30;3.90;;;26.00;65.70;;;;;;4858880;29;20486;-84
2023/08/11 07:59:29;;;;;;;3.53;3.23;;;26.00;65.70;;;;;;4857150;29;20519;-84
2023/08/11 08:01:59;;;;;;;3.37;3.07;;;26.00;65.70;;;;;;4867997;29;20896;-84
2023/08/11 08:04:27;;;;;;;3.23;3.00;;;26.00;65.60;;;;;;4858339;29;20481;-83
2023/08/11 08:06:55;;;;;;;4.77;3.87;;;26.00;65.60;;;;;;4854821;29;20898;-84
2023/08/11 08:09:24;;;;;;;3.57;2.80;;;26.00;65.60;;;;;;4858053;29;20467;-88
2023/08/11 08:11:52;;;;;;;4.13;3.20;;;26.00;65.60;;;;;;4859415;29;21276;-84
2023/08/11 08:14:20;;;;;;;3.27;3.07;;;26.10;65.60;;;;;;4869976;29;20469;-88
2023/08/11 08:16:48;;;;;;;3.53;3.23;;;26.10;65.70;;;;;;4857220;29;20471;-86
2023/08/11 08:19:18;;;;;;;3.20;3.00;;;26.10;65.60;;;;;;4860248;29;20540;-89
2023/08/11 08:21:47;;;;;;;3.47;3.00;;;26.10;65.60;;;;;;4858524;29;20492;-87
2023/08/11 08:24:15;;;;;;;3.23;2.93;;;26.10;65.60;;;;;;4857487;29;20469;-89
2023/08/11 08:26:47;;;;;;;3.63;3.33;;;26.10;65.60;;;;;;4859541;29;20801;-84
2023/08/11 08:29:15;;;;;;;4.43;3.03;;;26.10;65.60;;;;;;4858982;29;20477;-84
2023/08/11 08:31:44;;;;;;;3.50;3.20;;;26.10;65.60;;;;;;4858474;29;20570;-85
2023/08/11 08:34:12;;;;;;;3.67;3.43;;;26.10;65.60;;;;;;4858130;29;20459;-84
2023/08/11 08:36:42;;;;;;;3.27;2.97;;;26.10;65.60;;;;;;4857525;29;20532;-85
2023/08/11 08:39:10;;;;;;;2.97;2.67;;;26.10;65.60;;;;;;4855252;29;21252;-88
2023/08/11 08:41:40;;;;;;;3.53;3.20;;;26.10;65.60;;;;;;4859606;29;20483;-85
2023/08/11 08:44:09;;;;;;;2.87;2.67;;;26.10;65.60;;;;;;4855740;29;20590;-85
2023/08/11 08:46:39;;;;;;;3.73;3.37;;;26.10;65.70;;;;;;4856501;29;20487;-85
2023/08/11 08:49:21;;;;;;;3.33;3.03;;;26.10;65.70;;;;;;4859346;29;21007;-84
2023/08/11 08:51:52;;;;;;;2.90;2.70;;;26.10;65.70;;;;;;4860792;29;20953;-87
2023/08/11 08:54:21;;;;;;;3.50;3.30;;;26.10;65.70;;;;;;4862958;29;20459;-85
2023/08/11 08:56:50;;;;;;;3.67;3.37;;;26.10;65.60;;;;;;4859119;29;20476;-85
2023/08/11 08:59:18;;;;;;;3.20;2.90;;;26.10;65.50;;;;;;4861769;29;20491;-85
2023/08/11 09:01:47;;;;;;;2.70;2.30;;;26.10;65.60;;;;;;4862930;29;20479;-85
2023/08/11 09:04:16;;;;;;;3.57;3.30;;;26.10;65.60;;;;;;4862915;29;20479;-87
2023/08/11 09:06:45;;;;;;;3.07;2.83;;;26.10;65.70;;;;;;4863945;29;20472;-85
2023/08/11 09:09:15;;;;;;;3.30;3.00;;;26.10;65.70;;;;;;4862442;29;20512;-85
2023/08/11 09:11:43;;;;;;;3.03;2.70;;;26.10;65.70;;;;;;4864256;29;20443;-86
2023/08/11 09:14:12;;;;;;;2.67;2.47;;;26.10;65.70;;;;;;4862153;29;20469;-85
2023/08/11 09:16:40;;;;;;;2.50;2.40;;;26.10;65.70;;;;;;4853003;29;20475;-85
2023/08/11 09:19:12;;;;;;;5.10;3.90;;;26.10;65.70;;;;;;4857802;29;20522;-84
2023/08/11 09:21:42;;;;;;;4.27;3.10;;;26.10;65.70;;;;;;4859034;29;20459;-87
2023/08/11 09:24:11;;;;;;;3.93;3.40;;;26.10;65.70;;;;;;4857962;29;20955;-86
2023/08/11 09:26:44;;;;;;;3.70;3.40;;;26.10;65.90;;;;;;4859452;29;20489;-84
2023/08/11 09:29:14;;;;;;;4.00;3.60;;;26.10;65.90;;;;;;4866874;29;20467;-85
2023/08/11 09:31:43;;;;;;;2.80;2.60;;;26.10;66.00;;;;;;4863031;29;20534;-85
2023/08/11 09:34:13;;;;;;;3.77;3.50;;;26.10;66.10;;;;;;4861994;29;20459;-85
2023/08/11 09:36:42;;;;;;;4.20;3.90;;;26.10;66.10;;;;;;4862872;29;20466;-84
2023/08/11 09:39:11;;;;;;;3.10;2.90;;;26.10;66.10;;;;;;4860813;29;20694;-86
2023/08/11 09:41:47;;;;;;;3.90;3.60;;;26.10;66.10;;;;;;4863388;29;20466;-84
2023/08/11 09:44:16;;;;;;;3.03;2.80;;;26.10;66.20;;;;;;4864996;29;20456;-84
2023/08/11 09:46:46;;;;;;;3.80;2.80;;;26.10;66.20;;;;;;4862330;29;21029;-83
2023/08/11 09:49:14;;;;;;;3.20;3.00;;;26.10;66.30;;;;;;4870089;29;20544;-84
2023/08/11 09:51:43;;;;;;;3.10;2.90;;;26.10;66.20;;;;;;4856058;29;21030;-83
2023/08/11 09:54:13;;;;;;;3.50;3.20;;;26.10;66.20;;;;;;4862526;29;21072;-82
2023/08/11 09:56:41;;;;;;;3.60;3.30;;;26.10;66.20;;;;;;4857981;29;20539;-86
2023/08/11 09:59:13;;;;;;;3.50;3.10;;;26.10;66.20;;;;;;4856922;29;20490;-84
2023/08/11 10:01:44;;;;;;;4.47;3.40;;;26.10;66.40;;;;;;4853807;29;20464;-85
2023/08/11 10:04:18;;;;;;;4.00;3.20;;;26.10;66.40;;;;;;4856290;29;20993;-84
2023/08/11 10:06:50;;;;;;;3.40;3.10;;;26.10;66.40;;;;;;4860691;29;20462;-84
2023/08/11 10:09:23;;;;;;;3.67;3.47;;;26.10;66.40;;;;;;4864363;29;20448;-84
2023/08/11 10:11:52;;;;;;;3.30;3.00;;;26.10;66.50;;;;;;4877343;29;20482;-84
2023/08/11 10:14:23;;;;;;;3.13;2.93;;;26.10;66.50;;;;;;4862658;29;20467;-86
2023/08/11 10:16:52;;;;;;;3.20;3.00;;;26.20;66.60;;;;;;4864069;29;20458;-84
2023/08/11 10:19:21;;;;;;;3.63;3.30;;;26.20;66.50;;;;;;4865139;29;20479;-89
2023/08/11 10:21:49;;;;;;;4.37;3.97;;;26.20;66.60;;;;;;4862643;29;20509;-83
2023/08/11 10:24:18;;;;;;;3.07;2.77;;;26.20;66.50;;;;;;4865834;29;20537;-83
2023/08/11 10:26:47;;;;;;;3.77;3.47;;;26.20;66.60;;;;;;4869871;29;20495;-84
2023/08/11 10:29:16;;;;;;;3.90;3.53;;;26.20;66.60;;;;;;4860407;29;20996;-85
2023/08/11 10:31:56;;;;;;;3.60;3.30;;;26.20;66.50;;;;;;4867605;29;20561;-85
2023/08/11 10:34:26;;;;;;;2.90;2.60;;;26.20;66.40;;;;;;4863164;29;20471;-85
2023/08/11 10:36:55;;;;;;;3.20;2.90;;;26.30;66.30;;;;;;4865590;29;20450;-88
2023/08/11 10:39:25;;;;;;;3.57;3.23;;;26.30;66.30;;;;;;4862531;29;20567;-86
2023/08/11 10:41:55;;;;;;;3.83;2.97;;;26.30;66.20;;;;;;4863817;29;20456;-84
2023/08/11 10:44:29;;;;;;;4.60;2.80;;;26.30;66.10;;;;;;4858136;29;20991;-83
2023/08/11 10:47:03;;;;;;;3.03;2.83;;;26.30;66.20;;;;;;4857503;29;20841;-88
2023/08/11 10:49:33;;;;;;;3.03;2.73;;;26.30;66.20;;;;;;4860382;29;20556;-86
2023/08/11 10:52:03;;;;;;;2.73;2.53;;;26.40;66.10;;;;;;4856784;29;20463;-85
2023/08/11 10:54:32;;;;;;;6.70;3.13;;;26.40;66.10;;;;;;4857501;29;20479;-87
2023/08/11 10:57:02;;;;;;;3.17;2.97;;;26.40;66.00;;;;;;4856939;29;20563;-87
2023/08/11 10:59:33;;;;;;;4.33;3.80;;;26.50;65.90;;;;;;4857061;29;20484;-86
2023/08/11 11:02:02;;;;;;;3.00;2.80;;;26.50;65.90;;;;;;4856582;29;20519;-88
2023/08/11 11:04:32;;;;;;;3.60;3.30;;;26.50;65.90;;;;;;4857179;29;20545;-88
2023/08/11 11:07:01;;;;;;;3.50;3.20;;;26.50;65.90;;;;;;4856419;29;20474;-87
2023/08/11 11:09:30;;;;;;;4.43;2.90;;;26.50;66.00;;;;;;4854790;29;20472;-85
2023/08/11 11:11:59;;;;;;;5.27;3.63;;;26.50;65.90;;;;;;4871223;29;20467;-86
2023/08/11 11:14:27;;;;;;;3.43;3.17;;;26.50;65.90;;;;;;4854116;29;20721;-85
2023/08/11 11:17:00;;;;;;;4.83;3.20;;;26.50;65.90;;;;;;4858364;29;20513;-84
2023/08/11 11:19:32;;;;;;;3.60;3.30;;;26.50;66.00;;;;;;4859383;29;20853;-86
2023/08/11 11:22:00;;;;;;;3.63;3.33;;;26.50;66.00;;;;;;4854216;29;20465;-85
2023/08/11 11:24:29;;;;;;;4.60;4.13;;;26.50;66.00;;;;;;4857002;29;20571;-85
2023/08/11 11:26:57;;;;;;;4.53;3.30;;;26.50;66.00;;;;;;4859822;29;20502;-87
2023/08/11 11:29:28;;;;;;;3.70;3.07;;;26.50;65.90;;;;;;4861099;29;20487;-87
2023/08/11 11:31:59;;;;;;;7.13;4.17;;;26.50;65.90;;;;;;4860619;29;20538;-86
2023/08/11 11:34:27;;;;;;;4.23;3.27;;;26.60;65.90;;;;;;4862768;29;20472;-85
2023/08/11 11:36:58;;;;;;;3.23;2.93;;;26.60;66.10;;;;;;4861485;29;20453;-89
2023/08/11 11:39:28;;;;;;;4.23;3.80;;;26.60;66.20;;;;;;4861435;29;20496;-86
2023/08/11 11:42:06;;;;;;;5.37;3.73;;;26.70;66.00;;;;;;4856313;29;20555;-88
2023/08/11 11:44:36;;;;;;;2.83;2.63;;;26.80;65.90;;;;;;4864923;29;20475;-86
2023/08/11 11:47:05;;;;;;;5.93;3.30;;;26.90;65.70;;;;;;4858723;29;20515;-86
2023/08/11 11:49:33;;;;;;;3.90;3.30;;;27.00;65.30;;;;;;4861418;29;20519;-84
2023/08/11 11:52:03;;;;;;;6.37;3.63;;;27.10;64.90;;;;;;4861442;29;20449;-84
2023/08/11 11:54:33;;;;;;;4.57;3.10;;;27.20;64.70;;;;;;4865367;29;20457;-86
2023/08/11 11:57:05;;;;;;;3.83;3.33;;;27.40;64.30;;;;;;4857445;29;20451;-85
2023/08/11 11:59:36;;;;;;;5.87;3.90;;;27.60;64.00;;;;;;4862966;29;20478;-85
2023/08/11 12:02:05;;;;;;;7.03;3.37;;;27.80;63.60;;;;;;4860160;29;20472;-85
2023/08/11 12:04:33;;;;;;;6.10;3.90;;;27.90;63.30;;;;;;4856875;29;20555;-85
2023/08/11 12:07:07;;;;;;;4.93;3.90;;;28.10;63.00;;;;;;4871574;29;20474;-85
2023/08/11 12:09:49;;;;;;;4.83;4.10;;;28.20;62.90;;;;;;4857239;29;20469;-86
2023/08/11 12:12:19;;;;;;;6.03;4.30;;;28.30;62.60;;;;;;4855037;29;20606;-83
2023/08/11 12:14:50;;;;;;;4.07;3.00;;;28.40;62.50;;;;;;4858250;29;20517;-86
2023/08/11 12:17:18;;;;;;;6.37;4.30;;;28.40;62.40;;;;;;4853971;29;20460;-85
2023/08/11 12:19:47;;;;;;;3.83;3.53;;;28.50;62.70;;;;;;4859027;29;20479;-87
2023/08/11 12:22:17;;;;;;;4.67;4.10;;;28.50;62.50;;;;;;4857848;29;20470;-86
2023/08/11 12:24:45;;;;;;;7.27;4.17;;;28.50;62.70;;;;;;4854185;29;20459;-84
2023/08/11 12:27:13;;;;;;;7.43;5.10;;;28.60;63.20;;;;;;4858205;29;20521;-85
2023/08/11 12:29:41;;;;;;;5.53;4.33;;;28.60;62.70;;;;;;4859595;29;20467;-86
2023/08/11 12:32:10;;;;;;;7.37;5.60;;;28.60;62.80;;;;;;4858648;29;20943;-84
2023/08/11 12:34:38;;;;;;;6.30;4.27;;;28.60;62.40;;;;;;4859126;29;20456;-86
2023/08/11 12:37:07;;;;;;;6.30;3.60;;;28.60;62.40;;;;;;4855537;29;20457;-86
2023/08/11 12:39:40;;;;;;;7.27;4.10;;;28.60;62.40;;;;;;4861679;29;21033;-85
2023/08/11 12:42:10;;;;;;;6.10;4.10;;;28.50;62.50;;;;;;4858455;29;20522;-84
2023/08/11 12:44:39;;;;;;;5.70;4.00;;;28.50;62.50;;;;;;4850792;29;20562;-85
2023/08/11 12:47:07;;;;;;;4.23;3.83;;;28.40;62.70;;;;;;4858516;29;20587;-85
2023/08/11 12:49:35;;;;;;;4.70;4.20;;;28.30;62.80;;;;;;4850041;29;20463;-85
2023/08/11 12:52:04;;;;;;;7.03;4.03;;;28.30;63.10;;;;;;4856284;29;20484;-83
2023/08/11 12:54:32;;;;;;;6.10;4.00;;;28.20;63.30;;;;;;4854225;29;20495;-83
2023/08/11 12:57:02;;;;;;;5.23;4.00;;;28.20;63.40;;;;;;4855469;29;20463;-88
2023/08/11 12:59:30;;;;;;;3.63;3.33;;;28.10;63.60;;;;;;4851402;29;20563;-86